sensor_id;sensor_type;location;lat;lon;timestamp;temperature;humidity
17442;DHT22;8838;50.144;8.176;2023-11-19T00:02:25;7.50;99.90
17442;DHT22;8838;50.144;8.176;2023-11-19T00:04:52;7.60;99.90
17442;DHT22;8838;50.144;8.176;2023-11-19T00:07:19;7.50;99.90
17442;DHT22;8838;50.144;8.176;2023-11-19T00:09:46;7.50;99.90
17442;DHT22;8838;50.144;8.176;2023-11-19T00:12:14;7.60;99.90
17442;DHT22;8838;50.144;8.176;2023-11-19T00:14:41;7.60;99.90
17442;DHT22;8838;50.144;8.176;2023-11-19T00:17:08;7.50;99.90
17442;DHT22;8838;50.144;8.176;2023-11-19T00:19:34;7.50;99.90
17442;DHT22;8838;50.144;8.176;2023-11-19T00:22:01;7.50;99.90
17442;DHT22;8838;50.144;8.176;2023-11-19T00:24:29;7.60;99.90
17442;DHT22;8838;50.144;8.176;2023-11-19T00:26:56;7.60;99.90
17442;DHT22;8838;50.144;8.176;2023-11-19T00:29:24;7.60;99.90
17442;DHT22;8838;50.144;8.176;2023-11-19T00:31:51;7.70;99.90
17442;DHT22;8838;50.144;8.176;2023-11-19T00:34:18;7.60;99.90
17442;DHT22;8838;50.144;8.176;2023-11-19T00:36:48;7.60;99.90
17442;DHT22;8838;50.144;8.176;2023-11-19T00:39:15;7.50;99.90
17442;DHT22;8838;50.144;8.176;2023-11-19T00:41:41;7.50;99.90
17442;DHT22;8838;50.144;8.176;2023-11-19T00:44:08;7.50;99.90
17442;DHT22;8838;50.144;8.176;2023-11-19T00:46:36;7.50;99.90
17442;DHT22;8838;50.144;8.176;2023-11-19T00:49:03;7.60;99.90
17442;DHT22;8838;50.144;8.176;2023-11-19T00:51:30;7.60;99.90
17442;DHT22;8838;50.144;8.176;2023-11-19T00:53:57;7.70;99.90
17442;DHT22;8838;50.144;8.176;2023-11-19T00:56:24;7.70;99.90
17442;DHT22;8838;50.144;8.176;2023-11-19T00:58:51;7.60;99.90
17442;DHT22;8838;50.144;8.176;2023-11-19T01:01:18;7.60;99.90
17442;DHT22;8838;50.144;8.176;2023-11-19T01:03:46;7.60;99.90
17442;DHT22;8838;50.144;8.176;2023-11-19T01:06:13;7.60;99.90
17442;DHT22;8838;50.144;8.176;2023-11-19T01:08:42;7.50;99.90
17442;DHT22;8838;50.144;8.176;2023-11-19T01:11:18;7.50;99.90
17442;DHT22;8838;50.144;8.176;2023-11-19T01:13:46;7.50;99.90
17442;DHT22;8838;50.144;8.176;2023-11-19T01:16:13;7.50;99.90
17442;DHT22;8838;50.144;8.176;2023-11-19T01:18:40;7.50;99.90
17442;DHT22;8838;50.144;8.176;2023-11-19T01:21:08;7.50;99.90
17442;DHT22;8838;50.144;8.176;2023-11-19T01:23:35;7.60;99.90
17442;DHT22;8838;50.144;8.176;2023-11-19T01:26:02;7.50;99.90
17442;DHT22;8838;50.144;8.176;2023-11-19T01:28:31;7.60;99.90
17442;DHT22;8838;50.144;8.176;2023-11-19T01:30:57;7.60;99.90
17442;DHT22;8838;50.144;8.176;2023-11-19T01:33:24;7.70;99.90
17442;DHT22;8838;50.144;8.176;2023-11-19T01:35:51;7.60;99.90
17442;DHT22;8838;50.144;8.176;2023-11-19T01:38:19;7.60;99.90
17442;DHT22;8838;50.144;8.176;2023-11-19T01:40:46;7.60;99.90
17442;DHT22;8838;50.144;8.176;2023-11-19T01:43:13;7.60;99.90
17442;DHT22;8838;50.144;8.176;2023-11-19T01:45:57;7.50;99.90
17442;DHT22;8838;50.144;8.176;2023-11-19T01:48:23;7.50;99.90
17442;DHT22;8838;50.144;8.176;2023-11-19T01:50:50;7.50;99.90
17442;DHT22;8838;50.144;8.176;2023-11-19T01:53:19;7.50;99.90
17442;DHT22;8838;50.144;8.176;2023-11-19T01:55:46;7.50;99.90
17442;DHT22;8838;50.144;8.176;2023-11-19T01:58:14;7.50;99.90
17442;DHT22;8838;50.144;8.176;2023-11-19T02:00:41;7.50;99.90
17442;DHT22;8838;50.144;8.176;2023-11-19T02:03:09;7.50;99.90
17442;DHT22;8838;50.144;8.176;2023-11-19T02:05:37;7.50;99.90
17442;DHT22;8838;50.144;8.176;2023-11-19T02:08:04;7.50;99.90
17442;DHT22;8838;50.144;8.176;2023-11-19T02:10:32;7.50;99.90
17442;DHT22;8838;50.144;8.176;2023-11-19T02:12:59;7.60;99.90
17442;DHT22;8838;50.144;8.176;2023-11-19T02:15:25;7.50;99.90
17442;DHT22;8838;50.144;8.176;2023-11-19T02:17:52;7.60;99.90
17442;DHT22;8838;50.144;8.176;2023-11-19T02:20:20;7.60;99.90
17442;DHT22;8838;50.144;8.176;2023-11-19T02:22:47;7.70;99.90
17442;DHT22;8838;50.144;8.176;2023-11-19T02:25:22;7.60;99.90
17442;DHT22;8838;50.144;8.176;2023-11-19T02:27:54;7.60;99.90
17442;DHT22;8838;50.144;8.176;2023-11-19T02:30:22;7.60;99.90
17442;DHT22;8838;50.144;8.176;2023-11-19T02:32:52;7.60;99.90
17442;DHT22;8838;50.144;8.176;2023-11-19T02:35:19;7.60;99.90
17442;DHT22;8838;50.144;8.176;2023-11-19T02:37:47;7.60;99.90
17442;DHT22;8838;50.144;8.176;2023-11-19T02:40:14;7.60;99.90
17442;DHT22;8838;50.144;8.176;2023-11-19T02:42:40;7.60;99.90
17442;DHT22;8838;50.144;8.176;2023-11-19T02:45:10;7.60;99.90
17442;DHT22;8838;50.144;8.176;2023-11-19T02:47:39;7.70;99.90
17442;DHT22;8838;50.144;8.176;2023-11-19T02:50:08;7.70;99.90
17442;DHT22;8838;50.144;8.176;2023-11-19T02:52:39;7.60;99.90
17442;DHT22;8838;50.144;8.176;2023-11-19T02:55:06;7.70;99.90
17442;DHT22;8838;50.144;8.176;2023-11-19T02:57:35;7.60;99.90
17442;DHT22;8838;50.144;8.176;2023-11-19T03:00:02;7.70;99.90
17442;DHT22;8838;50.144;8.176;2023-11-19T03:02:39;7.70;99.90
17442;DHT22;8838;50.144;8.176;2023-11-19T03:05:10;7.70;99.90
17442;DHT22;8838;50.144;8.176;2023-11-19T03:07:37;7.80;99.90
17442;DHT22;8838;50.144;8.176;2023-11-19T03:10:04;7.80;99.90
17442;DHT22;8838;50.144;8.176;2023-11-19T03:12:31;7.80;99.90
17442;DHT22;8838;50.144;8.176;2023-11-19T03:14:58;7.80;99.90
17442;DHT22;8838;50.144;8.176;2023-11-19T03:17:25;7.90;99.90
17442;DHT22;8838;50.144;8.176;2023-11-19T03:19:53;7.90;99.90
17442;DHT22;8838;50.144;8.176;2023-11-19T03:22:20;8.00;99.90
17442;DHT22;8838;50.144;8.176;2023-11-19T03:24:47;8.00;99.90
17442;DHT22;8838;50.144;8.176;2023-11-19T03:27:13;8.00;99.90
17442;DHT22;8838;50.144;8.176;2023-11-19T03:29:40;8.00;99.90
17442;DHT22;8838;50.144;8.176;2023-11-19T03:32:07;8.00;99.90
17442;DHT22;8838;50.144;8.176;2023-11-19T03:34:33;7.90;99.90
17442;DHT22;8838;50.144;8.176;2023-11-19T03:37:02;8.00;99.90
17442;DHT22;8838;50.144;8.176;2023-11-19T03:39:29;8.00;99.90
17442;DHT22;8838;50.144;8.176;2023-11-19T03:41:56;8.00;99.90
17442;DHT22;8838;50.144;8.176;2023-11-19T03:44:22;7.90;99.90
17442;DHT22;8838;50.144;8.176;2023-11-19T03:46:51;8.00;99.90
17442;DHT22;8838;50.144;8.176;2023-11-19T03:49:18;8.00;99.90
17442;DHT22;8838;50.144;8.176;2023-11-19T03:51:45;8.10;99.90
17442;DHT22;8838;50.144;8.176;2023-11-19T03:54:13;8.10;99.90
17442;DHT22;8838;50.144;8.176;2023-11-19T03:56:40;8.10;99.90
17442;DHT22;8838;50.144;8.176;2023-11-19T03:59:07;8.10;99.90
17442;DHT22;8838;50.144;8.176;2023-11-19T04:01:35;8.10;99.90
17442;DHT22;8838;50.144;8.176;2023-11-19T04:04:03;8.20;99.90
17442;DHT22;8838;50.144;8.176;2023-11-19T04:06:29;8.20;99.90
17442;DHT22;8838;50.144;8.176;2023-11-19T04:08:57;8.20;99.90
17442;DHT22;8838;50.144;8.176;2023-11-19T04:11:25;8.30;99.90
17442;DHT22;8838;50.144;8.176;2023-11-19T04:13:51;8.30;99.90
17442;DHT22;8838;50.144;8.176;2023-11-19T04:16:18;8.30;99.90
17442;DHT22;8838;50.144;8.176;2023-11-19T04:18:45;8.30;99.90
17442;DHT22;8838;50.144;8.176;2023-11-19T04:21:12;8.30;99.90
17442;DHT22;8838;50.144;8.176;2023-11-19T04:23:39;8.40;99.90
17442;DHT22;8838;50.144;8.176;2023-11-19T04:26:06;8.30;99.90
17442;DHT22;8838;50.144;8.176;2023-11-19T04:28:34;8.30;99.90
17442;DHT22;8838;50.144;8.176;2023-11-19T04:31:00;8.30;99.90
17442;DHT22;8838;50.144;8.176;2023-11-19T04:33:28;8.30;99.90
17442;DHT22;8838;50.144;8.176;2023-11-19T04:35:55;8.30;99.90
17442;DHT22;8838;50.144;8.176;2023-11-19T04:38:22;8.40;99.90
17442;DHT22;8838;50.144;8.176;2023-11-19T04:40:49;8.40;99.90
17442;DHT22;8838;50.144;8.176;2023-11-19T04:43:15;8.50;99.90
17442;DHT22;8838;50.144;8.176;2023-11-19T04:45:43;8.50;99.90
17442;DHT22;8838;50.144;8.176;2023-11-19T04:48:10;8.50;99.90
17442;DHT22;8838;50.144;8.176;2023-11-19T04:50:38;8.40;99.90
17442;DHT22;8838;50.144;8.176;2023-11-19T04:53:04;8.40;99.90
17442;DHT22;8838;50.144;8.176;2023-11-19T04:55:31;8.50;99.90
17442;DHT22;8838;50.144;8.176;2023-11-19T04:57:58;8.50;99.90
17442;DHT22;8838;50.144;8.176;2023-11-19T05:00:25;8.50;99.90
17442;DHT22;8838;50.144;8.176;2023-11-19T05:02:53;8.60;99.90
17442;DHT22;8838;50.144;8.176;2023-11-19T05:05:20;8.60;99.90
17442;DHT22;8838;50.144;8.176;2023-11-19T05:07:47;8.50;99.90
17442;DHT22;8838;50.144;8.176;2023-11-19T05:10:14;8.60;99.90
17442;DHT22;8838;50.144;8.176;2023-11-19T05:12:41;8.60;99.90
17442;DHT22;8838;50.144;8.176;2023-11-19T05:15:08;8.60;99.90
17442;DHT22;8838;50.144;8.176;2023-11-19T05:17:35;8.60;99.90
17442;DHT22;8838;50.144;8.176;2023-11-19T05:20:05;8.60;99.90
17442;DHT22;8838;50.144;8.176;2023-11-19T05:22:38;8.60;99.90
17442;DHT22;8838;50.144;8.176;2023-11-19T05:25:06;8.60;99.90
17442;DHT22;8838;50.144;8.176;2023-11-19T05:27:34;8.60;99.90
17442;DHT22;8838;50.144;8.176;2023-11-19T05:30:01;8.60;99.90
17442;DHT22;8838;50.144;8.176;2023-11-19T05:32:28;8.60;99.90
17442;DHT22;8838;50.144;8.176;2023-11-19T05:34:54;8.80;99.90
17442;DHT22;8838;50.144;8.176;2023-11-19T05:37:23;8.80;99.90
17442;DHT22;8838;50.144;8.176;2023-11-19T05:39:50;8.90;99.90
17442;DHT22;8838;50.144;8.176;2023-11-19T05:42:17;8.90;99.90
17442;DHT22;8838;50.144;8.176;2023-11-19T05:44:44;8.90;99.90
17442;DHT22;8838;50.144;8.176;2023-11-19T05:47:12;9.00;99.90
17442;DHT22;8838;50.144;8.176;2023-11-19T05:49:38;9.00;99.90
17442;DHT22;8838;50.144;8.176;2023-11-19T05:52:05;9.00;99.90
17442;DHT22;8838;50.144;8.176;2023-11-19T05:54:34;8.90;99.90
17442;DHT22;8838;50.144;8.176;2023-11-19T05:57:03;8.80;99.90
17442;DHT22;8838;50.144;8.176;2023-11-19T05:59:30;8.80;99.90
17442;DHT22;8838;50.144;8.176;2023-11-19T06:01:58;8.80;99.90
17442;DHT22;8838;50.144;8.176;2023-11-19T06:04:25;8.80;99.90
17442;DHT22;8838;50.144;8.176;2023-11-19T06:06:52;8.80;99.90
17442;DHT22;8838;50.144;8.176;2023-11-19T06:09:20;8.80;99.90
17442;DHT22;8838;50.144;8.176;2023-11-19T06:11:50;8.80;99.90
17442;DHT22;8838;50.144;8.176;2023-11-19T06:14:18;8.80;99.90
17442;DHT22;8838;50.144;8.176;2023-11-19T06:16:43;8.80;99.90
17442;DHT22;8838;50.144;8.176;2023-11-19T06:19:10;8.80;99.90
17442;DHT22;8838;50.144;8.176;2023-11-19T06:21:37;8.90;99.90
17442;DHT22;8838;50.144;8.176;2023-11-19T06:24:05;8.90;99.90
17442;DHT22;8838;50.144;8.176;2023-11-19T06:26:32;9.00;99.90
17442;DHT22;8838;50.144;8.176;2023-11-19T06:29:00;9.00;99.90
17442;DHT22;8838;50.144;8.176;2023-11-19T06:31:27;9.00;99.90
17442;DHT22;8838;50.144;8.176;2023-11-19T06:33:53;9.10;99.90
17442;DHT22;8838;50.144;8.176;2023-11-19T06:36:20;9.10;99.90
17442;DHT22;8838;50.144;8.176;2023-11-19T06:38:47;9.20;99.90
17442;DHT22;8838;50.144;8.176;2023-11-19T06:41:14;9.20;99.90
17442;DHT22;8838;50.144;8.176;2023-11-19T06:43:40;9.10;99.90
17442;DHT22;8838;50.144;8.176;2023-11-19T06:46:15;9.10;99.90
17442;DHT22;8838;50.144;8.176;2023-11-19T06:48:42;9.10;99.90
17442;DHT22;8838;50.144;8.176;2023-11-19T06:51:10;9.10;99.90
17442;DHT22;8838;50.144;8.176;2023-11-19T06:53:37;9.10;99.90
17442;DHT22;8838;50.144;8.176;2023-11-19T06:56:05;9.20;99.90
17442;DHT22;8838;50.144;8.176;2023-11-19T06:58:36;9.20;99.90
17442;DHT22;8838;50.144;8.176;2023-11-19T07:01:03;9.10;99.90
17442;DHT22;8838;50.144;8.176;2023-11-19T07:03:31;9.10;99.90
17442;DHT22;8838;50.144;8.176;2023-11-19T07:05:58;9.20;99.90
17442;DHT22;8838;50.144;8.176;2023-11-19T07:08:25;9.10;99.90
17442;DHT22;8838;50.144;8.176;2023-11-19T07:10:52;9.10;99.90
17442;DHT22;8838;50.144;8.176;2023-11-19T07:13:19;9.20;99.90
17442;DHT22;8838;50.144;8.176;2023-11-19T07:15:46;9.20;99.90
17442;DHT22;8838;50.144;8.176;2023-11-19T07:18:13;9.20;99.90
17442;DHT22;8838;50.144;8.176;2023-11-19T07:20:41;9.30;99.90
17442;DHT22;8838;50.144;8.176;2023-11-19T07:23:09;9.30;99.90
17442;DHT22;8838;50.144;8.176;2023-11-19T07:25:35;9.40;99.90
17442;DHT22;8838;50.144;8.176;2023-11-19T07:28:02;9.50;99.90
17442;DHT22;8838;50.144;8.176;2023-11-19T07:30:30;9.50;99.90
17442;DHT22;8838;50.144;8.176;2023-11-19T07:32:57;9.60;99.90
17442;DHT22;8838;50.144;8.176;2023-11-19T07:35:23;9.60;99.90
17442;DHT22;8838;50.144;8.176;2023-11-19T07:37:50;9.60;99.90
17442;DHT22;8838;50.144;8.176;2023-11-19T07:40:18;9.70;99.90
17442;DHT22;8838;50.144;8.176;2023-11-19T07:42:45;9.70;99.90
17442;DHT22;8838;50.144;8.176;2023-11-19T07:45:12;9.80;99.90
17442;DHT22;8838;50.144;8.176;2023-11-19T07:47:39;9.80;99.90
17442;DHT22;8838;50.144;8.176;2023-11-19T07:50:06;9.90;99.90
17442;DHT22;8838;50.144;8.176;2023-11-19T07:52:33;9.90;99.90
17442;DHT22;8838;50.144;8.176;2023-11-19T07:55:01;9.90;99.90
17442;DHT22;8838;50.144;8.176;2023-11-19T07:57:28;10.00;99.90
17442;DHT22;8838;50.144;8.176;2023-11-19T07:59:56;10.10;99.90
17442;DHT22;8838;50.144;8.176;2023-11-19T08:02:23;10.10;99.90
17442;DHT22;8838;50.144;8.176;2023-11-19T08:04:50;10.10;99.90
17442;DHT22;8838;50.144;8.176;2023-11-19T08:07:18;10.20;99.90
17442;DHT22;8838;50.144;8.176;2023-11-19T08:09:44;10.10;99.90
17442;DHT22;8838;50.144;8.176;2023-11-19T08:12:13;10.20;99.90
17442;DHT22;8838;50.144;8.176;2023-11-19T08:14:41;10.20;99.90
17442;DHT22;8838;50.144;8.176;2023-11-19T08:17:08;10.20;99.90
17442;DHT22;8838;50.144;8.176;2023-11-19T08:19:34;10.20;99.90
17442;DHT22;8838;50.144;8.176;2023-11-19T08:22:01;10.20;99.90
17442;DHT22;8838;50.144;8.176;2023-11-19T08:24:28;10.20;99.90
17442;DHT22;8838;50.144;8.176;2023-11-19T08:26:55;10.20;99.90
17442;DHT22;8838;50.144;8.176;2023-11-19T08:29:23;10.20;99.90
17442;DHT22;8838;50.144;8.176;2023-11-19T08:31:50;10.30;99.90
17442;DHT22;8838;50.144;8.176;2023-11-19T08:34:17;10.30;99.90
17442;DHT22;8838;50.144;8.176;2023-11-19T08:36:44;10.30;99.90
17442;DHT22;8838;50.144;8.176;2023-11-19T08:39:11;10.30;99.90
17442;DHT22;8838;50.144;8.176;2023-11-19T08:41:39;10.30;99.90
17442;DHT22;8838;50.144;8.176;2023-11-19T08:44:07;10.30;99.90
17442;DHT22;8838;50.144;8.176;2023-11-19T08:46:35;10.40;99.90
17442;DHT22;8838;50.144;8.176;2023-11-19T08:49:02;10.40;99.90
17442;DHT22;8838;50.144;8.176;2023-11-19T08:51:28;10.30;99.90
17442;DHT22;8838;50.144;8.176;2023-11-19T08:53:55;10.30;99.90
17442;DHT22;8838;50.144;8.176;2023-11-19T08:56:23;10.30;99.90
17442;DHT22;8838;50.144;8.176;2023-11-19T08:58:49;10.50;99.90
17442;DHT22;8838;50.144;8.176;2023-11-19T09:01:16;10.60;99.90
17442;DHT22;8838;50.144;8.176;2023-11-19T09:03:44;10.60;99.90
17442;DHT22;8838;50.144;8.176;2023-11-19T09:06:11;11.00;99.90
17442;DHT22;8838;50.144;8.176;2023-11-19T09:08:38;11.50;99.90
17442;DHT22;8838;50.144;8.176;2023-11-19T09:11:07;12.20;99.90
17442;DHT22;8838;50.144;8.176;2023-11-19T09:13:34;13.00;99.90
17442;DHT22;8838;50.144;8.176;2023-11-19T09:16:01;13.40;99.90
17442;DHT22;8838;50.144;8.176;2023-11-19T09:18:29;13.70;99.90
17442;DHT22;8838;50.144;8.176;2023-11-19T09:20:57;13.80;99.90
17442;DHT22;8838;50.144;8.176;2023-11-19T09:23:24;13.90;99.90
17442;DHT22;8838;50.144;8.176;2023-11-19T09:25:51;13.60;99.90
17442;DHT22;8838;50.144;8.176;2023-11-19T09:28:17;13.10;99.90
17442;DHT22;8838;50.144;8.176;2023-11-19T09:30:44;13.40;99.90
17442;DHT22;8838;50.144;8.176;2023-11-19T09:33:11;13.80;99.90
17442;DHT22;8838;50.144;8.176;2023-11-19T09:35:38;13.80;99.90
17442;DHT22;8838;50.144;8.176;2023-11-19T09:38:06;13.50;99.90
17442;DHT22;8838;50.144;8.176;2023-11-19T09:40:33;13.20;99.90
17442;DHT22;8838;50.144;8.176;2023-11-19T09:43:00;13.60;99.90
17442;DHT22;8838;50.144;8.176;2023-11-19T09:45:28;13.60;99.90
17442;DHT22;8838;50.144;8.176;2023-11-19T09:47:55;13.50;99.90
17442;DHT22;8838;50.144;8.176;2023-11-19T09:50:23;13.40;99.90
17442;DHT22;8838;50.144;8.176;2023-11-19T09:52:51;13.30;99.90
17442;DHT22;8838;50.144;8.176;2023-11-19T09:55:19;13.80;99.90
17442;DHT22;8838;50.144;8.176;2023-11-19T09:57:47;13.90;99.90
17442;DHT22;8838;50.144;8.176;2023-11-19T10:00:15;14.00;99.90
17442;DHT22;8838;50.144;8.176;2023-11-19T10:02:45;13.80;99.90
17442;DHT22;8838;50.144;8.176;2023-11-19T10:05:13;14.10;99.90
17442;DHT22;8838;50.144;8.176;2023-11-19T10:07:40;13.80;99.90
17442;DHT22;8838;50.144;8.176;2023-11-19T10:10:08;13.30;99.90
17442;DHT22;8838;50.144;8.176;2023-11-19T10:12:37;13.30;99.90
17442;DHT22;8838;50.144;8.176;2023-11-19T10:15:06;13.20;99.90
17442;DHT22;8838;50.144;8.176;2023-11-19T10:17:34;13.80;99.90
17442;DHT22;8838;50.144;8.176;2023-11-19T10:20:01;14.00;99.90
17442;DHT22;8838;50.144;8.176;2023-11-19T10:22:29;14.40;99.90
17442;DHT22;8838;50.144;8.176;2023-11-19T10:24:55;14.80;99.90
17442;DHT22;8838;50.144;8.176;2023-11-19T10:27:24;14.60;99.90
17442;DHT22;8838;50.144;8.176;2023-11-19T10:29:52;14.00;99.90
17442;DHT22;8838;50.144;8.176;2023-11-19T10:32:19;13.70;99.90
17442;DHT22;8838;50.144;8.176;2023-11-19T10:34:45;13.60;99.90
17442;DHT22;8838;50.144;8.176;2023-11-19T10:37:27;13.60;99.90
17442;DHT22;8838;50.144;8.176;2023-11-19T10:39:55;13.50;99.90
17442;DHT22;8838;50.144;8.176;2023-11-19T10:42:22;13.60;99.90
17442;DHT22;8838;50.144;8.176;2023-11-19T10:44:49;14.00;99.90
17442;DHT22;8838;50.144;8.176;2023-11-19T10:47:19;13.50;99.90
17442;DHT22;8838;50.144;8.176;2023-11-19T10:49:46;12.90;99.90
17442;DHT22;8838;50.144;8.176;2023-11-19T10:52:17;12.60;99.90
17442;DHT22;8838;50.144;8.176;2023-11-19T10:54:44;12.40;99.90
17442;DHT22;8838;50.144;8.176;2023-11-19T10:57:19;12.30;99.90
17442;DHT22;8838;50.144;8.176;2023-11-19T10:59:48;12.20;99.90
17442;DHT22;8838;50.144;8.176;2023-11-19T11:02:21;12.20;99.90
17442;DHT22;8838;50.144;8.176;2023-11-19T11:04:49;12.10;99.90
17442;DHT22;8838;50.144;8.176;2023-11-19T11:07:19;12.10;99.90
17442;DHT22;8838;50.144;8.176;2023-11-19T11:09:48;12.10;99.90
17442;DHT22;8838;50.144;8.176;2023-11-19T11:12:16;12.10;99.90
17442;DHT22;8838;50.144;8.176;2023-11-19T11:14:44;12.00;99.90
17442;DHT22;8838;50.144;8.176;2023-11-19T11:17:12;12.00;99.90
17442;DHT22;8838;50.144;8.176;2023-11-19T11:19:44;11.90;99.90
17442;DHT22;8838;50.144;8.176;2023-11-19T11:22:12;11.80;99.90
17442;DHT22;8838;50.144;8.176;2023-11-19T11:25:06;11.90;99.90
17442;DHT22;8838;50.144;8.176;2023-11-19T11:27:49;11.80;99.90
17442;DHT22;8838;50.144;8.176;2023-11-19T11:30:29;11.90;99.90
17442;DHT22;8838;50.144;8.176;2023-11-19T11:33:10;11.90;99.90
17442;DHT22;8838;50.144;8.176;2023-11-19T11:35:53;11.90;99.90
17442;DHT22;8838;50.144;8.176;2023-11-19T11:38:22;11.90;99.90
17442;DHT22;8838;50.144;8.176;2023-11-19T11:41:19;11.80;99.90
17442;DHT22;8838;50.144;8.176;2023-11-19T11:43:48;11.80;99.90
17442;DHT22;8838;50.144;8.176;2023-11-19T11:46:53;11.70;99.90
17442;DHT22;8838;50.144;8.176;2023-11-19T11:49:28;11.80;99.90
17442;DHT22;8838;50.144;8.176;2023-11-19T11:52:02;11.80;99.90
17442;DHT22;8838;50.144;8.176;2023-11-19T11:54:33;11.80;99.90
17442;DHT22;8838;50.144;8.176;2023-11-19T11:57:06;11.80;99.90
17442;DHT22;8838;50.144;8.176;2023-11-19T11:59:43;11.80;99.90
17442;DHT22;8838;50.144;8.176;2023-11-19T12:02:13;11.80;99.90
17442;DHT22;8838;50.144;8.176;2023-11-19T12:04:40;11.90;99.90
17442;DHT22;8838;50.144;8.176;2023-11-19T12:07:12;11.90;99.90
17442;DHT22;8838;50.144;8.176;2023-11-19T12:09:40;11.90;99.90
17442;DHT22;8838;50.144;8.176;2023-11-19T12:12:13;12.00;99.90
17442;DHT22;8838;50.144;8.176;2023-11-19T12:15:05;12.00;99.90
17442;DHT22;8838;50.144;8.176;2023-11-19T12:17:42;11.90;99.90
17442;DHT22;8838;50.144;8.176;2023-11-19T12:20:16;12.00;99.90
17442;DHT22;8838;50.144;8.176;2023-11-19T12:22:46;12.00;99.90
17442;DHT22;8838;50.144;8.176;2023-11-19T12:25:15;12.10;99.90
17442;DHT22;8838;50.144;8.176;2023-11-19T12:27:44;12.10;99.90
17442;DHT22;8838;50.144;8.176;2023-11-19T12:30:11;12.10;99.90
17442;DHT22;8838;50.144;8.176;2023-11-19T12:32:39;12.10;99.90
17442;DHT22;8838;50.144;8.176;2023-11-19T12:35:07;12.20;99.90
17442;DHT22;8838;50.144;8.176;2023-11-19T12:37:40;12.20;99.90
17442;DHT22;8838;50.144;8.176;2023-11-19T12:40:14;12.20;99.90
17442;DHT22;8838;50.144;8.176;2023-11-19T12:42:43;12.20;99.90
17442;DHT22;8838;50.144;8.176;2023-11-19T12:45:09;12.30;99.90
17442;DHT22;8838;50.144;8.176;2023-11-19T12:47:38;12.30;99.90
17442;DHT22;8838;50.144;8.176;2023-11-19T12:50:05;12.40;99.90
17442;DHT22;8838;50.144;8.176;2023-11-19T12:52:33;12.30;99.90
17442;DHT22;8838;50.144;8.176;2023-11-19T12:55:00;12.30;99.90
17442;DHT22;8838;50.144;8.176;2023-11-19T12:57:39;12.30;99.90
17442;DHT22;8838;50.144;8.176;2023-11-19T13:00:06;12.40;99.90
17442;DHT22;8838;50.144;8.176;2023-11-19T13:02:45;12.40;99.90
17442;DHT22;8838;50.144;8.176;2023-11-19T13:05:26;12.40;99.90
17442;DHT22;8838;50.144;8.176;2023-11-19T13:07:59;12.40;99.90
17442;DHT22;8838;50.144;8.176;2023-11-19T13:10:26;12.40;99.90
17442;DHT22;8838;50.144;8.176;2023-11-19T13:13:04;12.40;99.90
17442;DHT22;8838;50.144;8.176;2023-11-19T13:15:31;12.40;99.90
17442;DHT22;8838;50.144;8.176;2023-11-19T13:17:58;12.40;99.90
17442;DHT22;8838;50.144;8.176;2023-11-19T13:20:25;12.30;99.90
17442;DHT22;8838;50.144;8.176;2023-11-19T13:22:57;12.30;99.90
17442;DHT22;8838;50.144;8.176;2023-11-19T13:25:24;12.30;99.90
17442;DHT22;8838;50.144;8.176;2023-11-19T13:27:51;12.30;99.90
17442;DHT22;8838;50.144;8.176;2023-11-19T13:30:20;12.30;99.90
17442;DHT22;8838;50.144;8.176;2023-11-19T13:32:48;12.30;99.90
17442;DHT22;8838;50.144;8.176;2023-11-19T13:35:15;12.40;99.90
17442;DHT22;8838;50.144;8.176;2023-11-19T13:37:43;12.40;99.90
17442;DHT22;8838;50.144;8.176;2023-11-19T13:40:10;12.40;99.90
17442;DHT22;8838;50.144;8.176;2023-11-19T13:42:39;12.30;99.90
17442;DHT22;8838;50.144;8.176;2023-11-19T13:45:08;12.40;99.90
17442;DHT22;8838;50.144;8.176;2023-11-19T13:47:38;12.30;99.90
17442;DHT22;8838;50.144;8.176;2023-11-19T13:50:08;12.30;99.90
17442;DHT22;8838;50.144;8.176;2023-11-19T13:52:36;12.30;99.90
17442;DHT22;8838;50.144;8.176;2023-11-19T13:55:05;12.30;99.90
17442;DHT22;8838;50.144;8.176;2023-11-19T13:57:33;12.30;99.90
17442;DHT22;8838;50.144;8.176;2023-11-19T14:00:00;12.30;99.90
17442;DHT22;8838;50.144;8.176;2023-11-19T14:02:27;12.30;99.90
17442;DHT22;8838;50.144;8.176;2023-11-19T14:04:56;12.30;99.90
17442;DHT22;8838;50.144;8.176;2023-11-19T14:07:22;12.20;99.90
17442;DHT22;8838;50.144;8.176;2023-11-19T14:09:49;12.40;99.90
17442;DHT22;8838;50.144;8.176;2023-11-19T14:12:16;12.50;99.90
17442;DHT22;8838;50.144;8.176;2023-11-19T14:14:43;12.50;99.90
17442;DHT22;8838;50.144;8.176;2023-11-19T14:17:12;12.70;99.90
17442;DHT22;8838;50.144;8.176;2023-11-19T14:19:40;12.80;99.90
17442;DHT22;8838;50.144;8.176;2023-11-19T14:22:09;12.70;99.90
17442;DHT22;8838;50.144;8.176;2023-11-19T14:24:36;12.60;99.90
17442;DHT22;8838;50.144;8.176;2023-11-19T14:27:03;12.50;99.90
17442;DHT22;8838;50.144;8.176;2023-11-19T14:29:30;12.40;99.90
17442;DHT22;8838;50.144;8.176;2023-11-19T14:31:57;12.30;99.90
17442;DHT22;8838;50.144;8.176;2023-11-19T14:34:24;12.30;99.90
17442;DHT22;8838;50.144;8.176;2023-11-19T14:36:51;12.20;99.90
17442;DHT22;8838;50.144;8.176;2023-11-19T14:39:20;12.20;99.90
17442;DHT22;8838;50.144;8.176;2023-11-19T14:41:47;12.20;99.90
17442;DHT22;8838;50.144;8.176;2023-11-19T14:44:14;12.20;99.90
17442;DHT22;8838;50.144;8.176;2023-11-19T14:46:41;12.00;99.90
17442;DHT22;8838;50.144;8.176;2023-11-19T14:49:08;12.00;99.90
17442;DHT22;8838;50.144;8.176;2023-11-19T14:51:35;11.90;99.90
17442;DHT22;8838;50.144;8.176;2023-11-19T14:54:03;11.90;99.90
17442;DHT22;8838;50.144;8.176;2023-11-19T14:56:31;11.80;99.90
17442;DHT22;8838;50.144;8.176;2023-11-19T14:58:58;11.80;99.90
17442;DHT22;8838;50.144;8.176;2023-11-19T15:01:25;11.90;99.90
17442;DHT22;8838;50.144;8.176;2023-11-19T15:03:54;11.80;99.90
17442;DHT22;8838;50.144;8.176;2023-11-19T15:06:23;11.80;99.90
17442;DHT22;8838;50.144;8.176;2023-11-19T15:08:51;11.80;99.90
17442;DHT22;8838;50.144;8.176;2023-11-19T15:11:20;11.70;99.90
17442;DHT22;8838;50.144;8.176;2023-11-19T15:13:49;11.70;99.90
17442;DHT22;8838;50.144;8.176;2023-11-19T15:16:16;11.50;99.90
17442;DHT22;8838;50.144;8.176;2023-11-19T15:18:48;11.40;99.90
17442;DHT22;8838;50.144;8.176;2023-11-19T15:21:15;11.30;99.90
17442;DHT22;8838;50.144;8.176;2023-11-19T15:23:41;11.30;99.90
17442;DHT22;8838;50.144;8.176;2023-11-19T15:26:08;11.30;99.90
17442;DHT22;8838;50.144;8.176;2023-11-19T15:28:36;11.30;99.90
17442;DHT22;8838;50.144;8.176;2023-11-19T15:31:04;11.30;99.90
17442;DHT22;8838;50.144;8.176;2023-11-19T15:33:31;11.30;99.90
17442;DHT22;8838;50.144;8.176;2023-11-19T15:35:58;11.40;99.90
17442;DHT22;8838;50.144;8.176;2023-11-19T15:38:25;11.30;99.90
17442;DHT22;8838;50.144;8.176;2023-11-19T15:40:52;11.20;99.90
17442;DHT22;8838;50.144;8.176;2023-11-19T15:43:20;11.10;99.90
17442;DHT22;8838;50.144;8.176;2023-11-19T15:45:48;11.00;99.90
17442;DHT22;8838;50.144;8.176;2023-11-19T15:48:17;10.90;99.90
17442;DHT22;8838;50.144;8.176;2023-11-19T15:50:44;10.80;99.90
17442;DHT22;8838;50.144;8.176;2023-11-19T15:53:11;10.70;99.90
17442;DHT22;8838;50.144;8.176;2023-11-19T15:55:38;10.70;99.90
17442;DHT22;8838;50.144;8.176;2023-11-19T15:58:04;10.70;99.90
17442;DHT22;8838;50.144;8.176;2023-11-19T16:00:31;10.50;99.90
17442;DHT22;8838;50.144;8.176;2023-11-19T16:02:58;10.40;99.90